sensor_id;sensor_type;location;lat;lon;timestamp;P1;durP1;ratioP1;P2;durP2;ratioP2
11473;SDS011;5793;52.238;13.438;2023-09-30T00:00:22;7.78;;;2.08;;
11473;SDS011;5793;52.238;13.438;2023-09-30T00:02:50;8.68;;;2.40;;
11473;SDS011;5793;52.238;13.438;2023-09-30T00:05:18;23.73;;;3.55;;
11473;SDS011;5793;52.238;13.438;2023-09-30T00:07:46;7.50;;;2.30;;
11473;SDS011;5793;52.238;13.438;2023-09-30T00:10:14;18.70;;;2.95;;
11473;SDS011;5793;52.238;13.438;2023-09-30T00:12:42;4.30;;;2.05;;
11473;SDS011;5793;52.238;13.438;2023-09-30T00:15:11;7.00;;;2.50;;
11473;SDS011;5793;52.238;13.438;2023-09-30T00:17:41;12.35;;;2.70;;
11473;SDS011;5793;52.238;13.438;2023-09-30T00:20:09;7.25;;;2.72;;
11473;SDS011;5793;52.238;13.438;2023-09-30T00:22:37;7.38;;;2.65;;
11473;SDS011;5793;52.238;13.438;2023-09-30T00:25:06;10.52;;;2.83;;
11473;SDS011;5793;52.238;13.438;2023-09-30T00:27:34;8.30;;;2.42;;
11473;SDS011;5793;52.238;13.438;2023-09-30T00:30:02;6.47;;;2.60;;
11473;SDS011;5793;52.238;13.438;2023-09-30T00:32:32;7.68;;;2.45;;
11473;SDS011;5793;52.238;13.438;2023-09-30T00:35:02;6.93;;;2.38;;
11473;SDS011;5793;52.238;13.438;2023-09-30T00:37:30;7.47;;;2.75;;
11473;SDS011;5793;52.238;13.438;2023-09-30T00:39:58;8.07;;;2.47;;
11473;SDS011;5793;52.238;13.438;2023-09-30T00:42:26;5.43;;;2.45;;
11473;SDS011;5793;52.238;13.438;2023-09-30T00:44:55;9.38;;;3.30;;
11473;SDS011;5793;52.238;13.438;2023-09-30T00:47:23;5.85;;;2.30;;
11473;SDS011;5793;52.238;13.438;2023-09-30T00:49:51;12.52;;;2.90;;
11473;SDS011;5793;52.238;13.438;2023-09-30T00:52:21;9.75;;;2.50;;
11473;SDS011;5793;52.238;13.438;2023-09-30T00:54:48;7.22;;;2.58;;
11473;SDS011;5793;52.238;13.438;2023-09-30T00:57:17;8.05;;;2.67;;
11473;SDS011;5793;52.238;13.438;2023-09-30T00:59:48;8.32;;;2.78;;
11473;SDS011;5793;52.238;13.438;2023-09-30T01:02:17;8.23;;;2.85;;
11473;SDS011;5793;52.238;13.438;2023-09-30T01:04:45;10.75;;;2.60;;
11473;SDS011;5793;52.238;13.438;2023-09-30T01:07:14;11.98;;;2.72;;
11473;SDS011;5793;52.238;13.438;2023-09-30T01:09:43;6.75;;;2.65;;
11473;SDS011;5793;52.238;13.438;2023-09-30T01:12:12;10.18;;;3.28;;
11473;SDS011;5793;52.238;13.438;2023-09-30T01:14:40;8.30;;;2.80;;
11473;SDS011;5793;52.238;13.438;2023-09-30T01:17:09;9.90;;;2.95;;
11473;SDS011;5793;52.238;13.438;2023-09-30T01:19:39;10.05;;;2.42;;
11473;SDS011;5793;52.238;13.438;2023-09-30T01:22:10;11.10;;;3.28;;
11473;SDS011;5793;52.238;13.438;2023-09-30T01:24:38;8.32;;;2.80;;
11473;SDS011;5793;52.238;13.438;2023-09-30T01:27:07;13.27;;;2.90;;
11473;SDS011;5793;52.238;13.438;2023-09-30T01:29:35;6.45;;;2.78;;
11473;SDS011;5793;52.238;13.438;2023-09-30T01:32:05;8.57;;;2.80;;
11473;SDS011;5793;52.238;13.438;2023-09-30T01:34:36;10.15;;;3.38;;
11473;SDS011;5793;52.238;13.438;2023-09-30T01:37:04;7.90;;;3.17;;
11473;SDS011;5793;52.238;13.438;2023-09-30T01:39:33;8.20;;;2.85;;
11473;SDS011;5793;52.238;13.438;2023-09-30T01:42:01;10.05;;;3.03;;
11473;SDS011;5793;52.238;13.438;2023-09-30T01:44:29;6.78;;;2.67;;
11473;SDS011;5793;52.238;13.438;2023-09-30T01:46:58;9.43;;;2.67;;
11473;SDS011;5793;52.238;13.438;2023-09-30T01:49:26;13.30;;;3.20;;
11473;SDS011;5793;52.238;13.438;2023-09-30T01:51:54;7.78;;;2.88;;
11473;SDS011;5793;52.238;13.438;2023-09-30T01:54:21;7.95;;;3.20;;
11473;SDS011;5793;52.238;13.438;2023-09-30T01:56:51;9.77;;;3.00;;
11473;SDS011;5793;52.238;13.438;2023-09-30T01:59:18;10.05;;;3.05;;
11473;SDS011;5793;52.238;13.438;2023-09-30T02:01:47;11.07;;;2.78;;
11473;SDS011;5793;52.238;13.438;2023-09-30T02:04:16;6.72;;;2.85;;
11473;SDS011;5793;52.238;13.438;2023-09-30T02:06:44;9.00;;;2.65;;
11473;SDS011;5793;52.238;13.438;2023-09-30T02:09:12;7.95;;;3.08;;
11473;SDS011;5793;52.238;13.438;2023-09-30T02:11:39;10.10;;;3.58;;
11473;SDS011;5793;52.238;13.438;2023-09-30T02:14:10;8.80;;;3.10;;
11473;SDS011;5793;52.238;13.438;2023-09-30T02:16:38;10.05;;;3.60;;
11473;SDS011;5793;52.238;13.438;2023-09-30T02:19:06;10.38;;;3.20;;
11473;SDS011;5793;52.238;13.438;2023-09-30T02:21:37;7.68;;;2.90;;
11473;SDS011;5793;52.238;13.438;2023-09-30T02:24:05;8.73;;;3.40;;
11473;SDS011;5793;52.238;13.438;2023-09-30T02:26:34;6.55;;;3.00;;
11473;SDS011;5793;52.238;13.438;2023-09-30T02:29:01;8.85;;;2.80;;
11473;SDS011;5793;52.238;13.438;2023-09-30T02:31:31;9.52;;;2.75;;
11473;SDS011;5793;52.238;13.438;2023-09-30T02:33:59;10.82;;;3.47;;
11473;SDS011;5793;52.238;13.438;2023-09-30T02:36:29;11.55;;;3.20;;
11473;SDS011;5793;52.238;13.438;2023-09-30T02:38:57;8.30;;;3.15;;
11473;SDS011;5793;52.238;13.438;2023-09-30T02:41:25;6.15;;;2.80;;
11473;SDS011;5793;52.238;13.438;2023-09-30T02:43:53;7.97;;;3.13;;
11473;SDS011;5793;52.238;13.438;2023-09-30T02:46:21;9.55;;;3.35;;
11473;SDS011;5793;52.238;13.438;2023-09-30T02:48:50;7.60;;;3.03;;
11473;SDS011;5793;52.238;13.438;2023-09-30T02:51:19;9.48;;;3.28;;
11473;SDS011;5793;52.238;13.438;2023-09-30T02:53:48;13.52;;;3.40;;
11473;SDS011;5793;52.238;13.438;2023-09-30T02:56:16;7.70;;;3.47;;
11473;SDS011;5793;52.238;13.438;2023-09-30T02:58:45;13.45;;;3.85;;
11473;SDS011;5793;52.238;13.438;2023-09-30T03:01:13;9.65;;;3.28;;
11473;SDS011;5793;52.238;13.438;2023-09-30T03:03:44;11.73;;;3.72;;
11473;SDS011;5793;52.238;13.438;2023-09-30T03:06:13;8.13;;;3.28;;
11473;SDS011;5793;52.238;13.438;2023-09-30T03:08:41;7.95;;;3.08;;
11473;SDS011;5793;52.238;13.438;2023-09-30T03:11:09;9.18;;;3.15;;
11473;SDS011;5793;52.238;13.438;2023-09-30T03:13:37;11.20;;;3.15;;
11473;SDS011;5793;52.238;13.438;2023-09-30T03:16:06;10.60;;;3.35;;
11473;SDS011;5793;52.238;13.438;2023-09-30T03:18:34;9.00;;;3.38;;
11473;SDS011;5793;52.238;13.438;2023-09-30T03:21:02;10.07;;;3.63;;
11473;SDS011;5793;52.238;13.438;2023-09-30T03:23:41;10.13;;;3.70;;
11473;SDS011;5793;52.238;13.438;2023-09-30T03:26:09;11.90;;;3.67;;
11473;SDS011;5793;52.238;13.438;2023-09-30T03:28:37;9.32;;;3.35;;
11473;SDS011;5793;52.238;13.438;2023-09-30T03:31:05;12.23;;;4.40;;
11473;SDS011;5793;52.238;13.438;2023-09-30T03:33:33;12.90;;;3.95;;
11473;SDS011;5793;52.238;13.438;2023-09-30T03:36:02;12.30;;;3.85;;
11473;SDS011;5793;52.238;13.438;2023-09-30T03:38:30;12.40;;;4.47;;
11473;SDS011;5793;52.238;13.438;2023-09-30T03:41:00;10.27;;;3.80;;
11473;SDS011;5793;52.238;13.438;2023-09-30T03:43:28;9.82;;;3.67;;
11473;SDS011;5793;52.238;13.438;2023-09-30T03:45:56;10.95;;;3.83;;
11473;SDS011;5793;52.238;13.438;2023-09-30T03:48:24;10.77;;;3.78;;
11473;SDS011;5793;52.238;13.438;2023-09-30T03:50:52;11.75;;;4.07;;
11473;SDS011;5793;52.238;13.438;2023-09-30T03:53:20;10.40;;;3.85;;
11473;SDS011;5793;52.238;13.438;2023-09-30T03:55:52;13.15;;;4.10;;
11473;SDS011;5793;52.238;13.438;2023-09-30T03:58:21;14.15;;;3.90;;
11473;SDS011;5793;52.238;13.438;2023-09-30T04:00:49;13.60;;;4.18;;
11473;SDS011;5793;52.238;13.438;2023-09-30T04:03:18;15.02;;;4.32;;
11473;SDS011;5793;52.238;13.438;2023-09-30T04:05:46;14.55;;;3.78;;
11473;SDS011;5793;52.238;13.438;2023-09-30T04:08:16;11.25;;;3.97;;
11473;SDS011;5793;52.238;13.438;2023-09-30T04:10:44;11.45;;;3.80;;
11473;SDS011;5793;52.238;13.438;2023-09-30T04:13:12;13.20;;;4.22;;
11473;SDS011;5793;52.238;13.438;2023-09-30T04:15:41;13.15;;;4.13;;
11473;SDS011;5793;52.238;13.438;2023-09-30T04:18:10;10.75;;;3.58;;
11473;SDS011;5793;52.238;13.438;2023-09-30T04:20:38;16.10;;;4.85;;
11473;SDS011;5793;52.238;13.438;2023-09-30T04:23:06;15.05;;;4.35;;
11473;SDS011;5793;52.238;13.438;2023-09-30T04:25:36;12.10;;;4.07;;
11473;SDS011;5793;52.238;13.438;2023-09-30T04:28:03;14.35;;;4.55;;
11473;SDS011;5793;52.238;13.438;2023-09-30T04:30:32;13.80;;;3.83;;
11473;SDS011;5793;52.238;13.438;2023-09-30T04:33:01;13.65;;;4.13;;
11473;SDS011;5793;52.238;13.438;2023-09-30T04:35:30;9.48;;;3.60;;
11473;SDS011;5793;52.238;13.438;2023-09-30T04:37:58;13.50;;;4.80;;
11473;SDS011;5793;52.238;13.438;2023-09-30T04:40:27;11.82;;;4.32;;
11473;SDS011;5793;52.238;13.438;2023-09-30T04:42:55;12.30;;;4.10;;
11473;SDS011;5793;52.238;13.438;2023-09-30T04:45:24;12.32;;;4.45;;
11473;SDS011;5793;52.238;13.438;2023-09-30T04:47:53;12.98;;;4.15;;
11473;SDS011;5793;52.238;13.438;2023-09-30T04:50:23;17.98;;;4.55;;
11473;SDS011;5793;52.238;13.438;2023-09-30T04:52:51;13.15;;;4.20;;
11473;SDS011;5793;52.238;13.438;2023-09-30T04:55:20;11.60;;;3.83;;
11473;SDS011;5793;52.238;13.438;2023-09-30T04:57:48;11.27;;;4.22;;
11473;SDS011;5793;52.238;13.438;2023-09-30T05:00:16;9.85;;;3.85;;
11473;SDS011;5793;52.238;13.438;2023-09-30T05:02:45;6.88;;;3.55;;
11473;SDS011;5793;52.238;13.438;2023-09-30T05:05:14;15.77;;;4.35;;
11473;SDS011;5793;52.238;13.438;2023-09-30T05:07:43;13.52;;;4.03;;
11473;SDS011;5793;52.238;13.438;2023-09-30T05:10:13;15.38;;;4.40;;
11473;SDS011;5793;52.238;13.438;2023-09-30T05:12:42;10.55;;;3.88;;
11473;SDS011;5793;52.238;13.438;2023-09-30T05:15:13;8.50;;;3.75;;
11473;SDS011;5793;52.238;13.438;2023-09-30T05:17:43;14.40;;;4.60;;
11473;SDS011;5793;52.238;13.438;2023-09-30T05:20:12;8.80;;;4.43;;
11473;SDS011;5793;52.238;13.438;2023-09-30T05:22:40;12.45;;;4.43;;
11473;SDS011;5793;52.238;13.438;2023-09-30T05:25:12;8.55;;;3.67;;
11473;SDS011;5793;52.238;13.438;2023-09-30T05:27:42;10.55;;;3.72;;
11473;SDS011;5793;52.238;13.438;2023-09-30T05:30:10;12.50;;;4.25;;
11473;SDS011;5793;52.238;13.438;2023-09-30T05:32:41;10.75;;;3.75;;
11473;SDS011;5793;52.238;13.438;2023-09-30T05:35:09;11.80;;;4.60;;
11473;SDS011;5793;52.238;13.438;2023-09-30T05:37:39;12.85;;;4.05;;
11473;SDS011;5793;52.238;13.438;2023-09-30T05:40:08;11.55;;;3.83;;
11473;SDS011;5793;52.238;13.438;2023-09-30T05:42:44;12.05;;;4.18;;
11473;SDS011;5793;52.238;13.438;2023-09-30T05:45:12;12.40;;;4.38;;
11473;SDS011;5793;52.238;13.438;2023-09-30T05:47:40;11.85;;;4.10;;
11473;SDS011;5793;52.238;13.438;2023-09-30T05:50:08;9.90;;;4.15;;
11473;SDS011;5793;52.238;13.438;2023-09-30T05:52:40;14.10;;;4.32;;
11473;SDS011;5793;52.238;13.438;2023-09-30T05:55:08;12.65;;;4.25;;
11473;SDS011;5793;52.238;13.438;2023-09-30T05:57:36;12.70;;;4.40;;
11473;SDS011;5793;52.238;13.438;2023-09-30T06:00:07;12.30;;;4.15;;
11473;SDS011;5793;52.238;13.438;2023-09-30T06:02:41;10.05;;;4.10;;
11473;SDS011;5793;52.238;13.438;2023-09-30T06:05:10;11.43;;;4.38;;
11473;SDS011;5793;52.238;13.438;2023-09-30T06:07:38;15.43;;;4.45;;
11473;SDS011;5793;52.238;13.438;2023-09-30T06:10:08;14.80;;;5.15;;
11473;SDS011;5793;52.238;13.438;2023-09-30T06:12:37;11.13;;;4.05;;
11473;SDS011;5793;52.238;13.438;2023-09-30T06:15:07;14.15;;;4.97;;
11473;SDS011;5793;52.238;13.438;2023-09-30T06:17:36;14.25;;;4.90;;
11473;SDS011;5793;52.238;13.438;2023-09-30T06:20:04;13.40;;;4.40;;
11473;SDS011;5793;52.238;13.438;2023-09-30T06:22:35;16.40;;;4.72;;
11473;SDS011;5793;52.238;13.438;2023-09-30T06:25:03;11.70;;;4.63;;
11473;SDS011;5793;52.238;13.438;2023-09-30T06:27:32;14.38;;;4.65;;
11473;SDS011;5793;52.238;13.438;2023-09-30T06:30:00;12.40;;;4.85;;
11473;SDS011;5793;52.238;13.438;2023-09-30T06:32:29;11.52;;;4.32;;
11473;SDS011;5793;52.238;13.438;2023-09-30T06:34:57;15.90;;;4.60;;
11473;SDS011;5793;52.238;13.438;2023-09-30T06:37:24;13.70;;;3.67;;
11473;SDS011;5793;52.238;13.438;2023-09-30T06:39:55;10.98;;;3.97;;
11473;SDS011;5793;52.238;13.438;2023-09-30T06:42:24;13.73;;;4.88;;
11473;SDS011;5793;52.238;13.438;2023-09-30T06:44:52;10.27;;;3.97;;
11473;SDS011;5793;52.238;13.438;2023-09-30T06:47:20;11.98;;;4.30;;
11473;SDS011;5793;52.238;13.438;2023-09-30T06:49:49;11.68;;;4.07;;
11473;SDS011;5793;52.238;13.438;2023-09-30T06:52:17;10.65;;;3.80;;
11473;SDS011;5793;52.238;13.438;2023-09-30T06:54:46;15.88;;;4.25;;
11473;SDS011;5793;52.238;13.438;2023-09-30T06:57:13;12.48;;;4.53;;
11473;SDS011;5793;52.238;13.438;2023-09-30T06:59:41;12.98;;;4.20;;
11473;SDS011;5793;52.238;13.438;2023-09-30T07:02:09;12.77;;;4.55;;
11473;SDS011;5793;52.238;13.438;2023-09-30T07:04:37;12.07;;;3.90;;
11473;SDS011;5793;52.238;13.438;2023-09-30T07:07:07;10.77;;;3.88;;
11473;SDS011;5793;52.238;13.438;2023-09-30T07:09:36;15.23;;;4.53;;
11473;SDS011;5793;52.238;13.438;2023-09-30T07:12:04;9.77;;;3.58;;
11473;SDS011;5793;52.238;13.438;2023-09-30T07:14:32;12.82;;;4.40;;
11473;SDS011;5793;52.238;13.438;2023-09-30T07:16:59;16.15;;;4.63;;
11473;SDS011;5793;52.238;13.438;2023-09-30T07:19:27;10.95;;;3.97;;
11473;SDS011;5793;52.238;13.438;2023-09-30T07:21:55;15.20;;;4.30;;
11473;SDS011;5793;52.238;13.438;2023-09-30T07:24:31;13.18;;;4.07;;
11473;SDS011;5793;52.238;13.438;2023-09-30T07:26:59;9.38;;;3.92;;
11473;SDS011;5793;52.238;13.438;2023-09-30T07:29:28;11.90;;;4.05;;
11473;SDS011;5793;52.238;13.438;2023-09-30T07:31:56;10.95;;;4.15;;
11473;SDS011;5793;52.238;13.438;2023-09-30T07:34:23;11.35;;;4.03;;
11473;SDS011;5793;52.238;13.438;2023-09-30T07:36:51;11.63;;;3.45;;
11473;SDS011;5793;52.238;13.438;2023-09-30T07:39:19;10.95;;;4.03;;
11473;SDS011;5793;52.238;13.438;2023-09-30T07:41:48;13.82;;;4.72;;
11473;SDS011;5793;52.238;13.438;2023-09-30T07:44:16;11.75;;;3.75;;
11473;SDS011;5793;52.238;13.438;2023-09-30T07:46:44;15.00;;;4.32;;
11473;SDS011;5793;52.238;13.438;2023-09-30T07:49:13;8.57;;;3.45;;
11473;SDS011;5793;52.238;13.438;2023-09-30T07:51:41;15.45;;;3.97;;
11473;SDS011;5793;52.238;13.438;2023-09-30T07:54:09;11.32;;;3.83;;
11473;SDS011;5793;52.238;13.438;2023-09-30T07:56:57;9.15;;;3.88;;
11473;SDS011;5793;52.238;13.438;2023-09-30T07:59:25;11.20;;;3.95;;
11473;SDS011;5793;52.238;13.438;2023-09-30T08:01:53;10.73;;;4.40;;
11473;SDS011;5793;52.238;13.438;2023-09-30T08:04:23;11.98;;;3.90;;
11473;SDS011;5793;52.238;13.438;2023-09-30T08:06:51;11.57;;;3.75;;
11473;SDS011;5793;52.238;13.438;2023-09-30T08:09:19;12.20;;;3.53;;
11473;SDS011;5793;52.238;13.438;2023-09-30T08:11:50;10.90;;;3.90;;
11473;SDS011;5793;52.238;13.438;2023-09-30T08:14:21;12.65;;;4.50;;
11473;SDS011;5793;52.238;13.438;2023-09-30T08:16:49;13.05;;;3.75;;
11473;SDS011;5793;52.238;13.438;2023-09-30T08:19:17;11.07;;;3.88;;
11473;SDS011;5793;52.238;13.438;2023-09-30T08:21:46;12.65;;;3.88;;
11473;SDS011;5793;52.238;13.438;2023-09-30T08:24:15;11.95;;;3.58;;
11473;SDS011;5793;52.238;13.438;2023-09-30T08:26:43;9.30;;;3.40;;
11473;SDS011;5793;52.238;13.438;2023-09-30T08:29:11;15.77;;;4.32;;
11473;SDS011;5793;52.238;13.438;2023-09-30T08:31:40;11.45;;;3.88;;
11473;SDS011;5793;52.238;13.438;2023-09-30T08:34:08;11.65;;;3.75;;
11473;SDS011;5793;52.238;13.438;2023-09-30T08:36:36;9.50;;;3.30;;
11473;SDS011;5793;52.238;13.438;2023-09-30T08:39:04;14.60;;;4.07;;
11473;SDS011;5793;52.238;13.438;2023-09-30T08:41:33;14.30;;;4.28;;
11473;SDS011;5793;52.238;13.438;2023-09-30T08:44:01;13.52;;;3.67;;
11473;SDS011;5793;52.238;13.438;2023-09-30T08:46:30;14.07;;;3.83;;
11473;SDS011;5793;52.238;13.438;2023-09-30T08:49:02;15.20;;;4.45;;
11473;SDS011;5793;52.238;13.438;2023-09-30T08:51:32;13.23;;;3.28;;
11473;SDS011;5793;52.238;13.438;2023-09-30T08:54:00;8.50;;;3.60;;
11473;SDS011;5793;52.238;13.438;2023-09-30T08:56:30;12.43;;;3.70;;
11473;SDS011;5793;52.238;13.438;2023-09-30T08:59:00;10.40;;;3.47;;
11473;SDS011;5793;52.238;13.438;2023-09-30T09:01:29;10.27;;;3.53;;
11473;SDS011;5793;52.238;13.438;2023-09-30T09:03:58;9.75;;;3.38;;
11473;SDS011;5793;52.238;13.438;2023-09-30T09:06:27;10.23;;;3.67;;
11473;SDS011;5793;52.238;13.438;2023-09-30T09:09:05;12.40;;;3.95;;
11473;SDS011;5793;52.238;13.438;2023-09-30T09:11:40;10.35;;;3.63;;
11473;SDS011;5793;52.238;13.438;2023-09-30T09:14:07;14.43;;;3.35;;
11473;SDS011;5793;52.238;13.438;2023-09-30T09:16:35;10.63;;;3.33;;
11473;SDS011;5793;52.238;13.438;2023-09-30T09:19:12;11.18;;;3.40;;
11473;SDS011;5793;52.238;13.438;2023-09-30T09:21:54;11.10;;;3.38;;
11473;SDS011;5793;52.238;13.438;2023-09-30T09:24:27;10.45;;;3.80;;
11473;SDS011;5793;52.238;13.438;2023-09-30T09:27:05;6.60;;;3.17;;
11473;SDS011;5793;52.238;13.438;2023-09-30T09:29:34;9.23;;;2.95;;
11473;SDS011;5793;52.238;13.438;2023-09-30T09:32:06;12.52;;;3.80;;
11473;SDS011;5793;52.238;13.438;2023-09-30T09:34:36;9.98;;;3.30;;
11473;SDS011;5793;52.238;13.438;2023-09-30T09:37:15;14.85;;;3.95;;
11473;SDS011;5793;52.238;13.438;2023-09-30T09:39:50;8.43;;;3.10;;
11473;SDS011;5793;52.238;13.438;2023-09-30T09:42:26;10.88;;;3.63;;
11473;SDS011;5793;52.238;13.438;2023-09-30T09:44:56;13.55;;;3.42;;
11473;SDS011;5793;52.238;13.438;2023-09-30T09:47:25;14.05;;;3.85;;
11473;SDS011;5793;52.238;13.438;2023-09-30T09:49:55;11.73;;;3.22;;
11473;SDS011;5793;52.238;13.438;2023-09-30T09:52:26;14.65;;;3.53;;
11473;SDS011;5793;52.238;13.438;2023-09-30T09:54:55;12.40;;;3.67;;
11473;SDS011;5793;52.238;13.438;2023-09-30T09:57:24;7.60;;;3.20;;
11473;SDS011;5793;52.238;13.438;2023-09-30T09:59:53;10.00;;;3.45;;
11473;SDS011;5793;52.238;13.438;2023-09-30T10:02:25;11.60;;;3.60;;
11473;SDS011;5793;52.238;13.438;2023-09-30T10:04:54;12.27;;;2.80;;
11473;SDS011;5793;52.238;13.438;2023-09-30T10:07:25;11.32;;;3.33;;
11473;SDS011;5793;52.238;13.438;2023-09-30T10:09:57;8.95;;;3.08;;
11473;SDS011;5793;52.238;13.438;2023-09-30T10:12:27;14.02;;;2.72;;
11473;SDS011;5793;52.238;13.438;2023-09-30T10:18:06;8.07;;;2.85;;
11473;SDS011;5793;52.238;13.438;2023-09-30T10:20:41;10.15;;;3.03;;
11473;SDS011;5793;52.238;13.438;2023-09-30T10:23:22;6.57;;;2.85;;
11473;SDS011;5793;52.238;13.438;2023-09-30T10:25:53;7.07;;;2.85;;
11473;SDS011;5793;52.238;13.438;2023-09-30T10:28:37;7.20;;;3.10;;
11473;SDS011;5793;52.238;13.438;2023-09-30T10:31:07;8.95;;;3.08;;
11473;SDS011;5793;52.238;13.438;2023-09-30T10:33:35;9.70;;;2.83;;
11473;SDS011;5793;52.238;13.438;2023-09-30T10:36:03;9.57;;;2.65;;
11473;SDS011;5793;52.238;13.438;2023-09-30T10:38:39;7.90;;;2.83;;
11473;SDS011;5793;52.238;13.438;2023-09-30T10:41:07;8.05;;;2.53;;
11473;SDS011;5793;52.238;13.438;2023-09-30T10:43:36;12.70;;;2.90;;
11473;SDS011;5793;52.238;13.438;2023-09-30T10:46:29;10.38;;;2.80;;
11473;SDS011;5793;52.238;13.438;2023-09-30T10:51:59;9.05;;;2.60;;
11473;SDS011;5793;52.238;13.438;2023-09-30T10:54:30;10.05;;;2.80;;
11473;SDS011;5793;52.238;13.438;2023-09-30T10:56:59;7.43;;;2.53;;
11473;SDS011;5793;52.238;13.438;2023-09-30T10:59:29;16.05;;;2.88;;
11473;SDS011;5793;52.238;13.438;2023-09-30T11:02:01;8.18;;;2.55;;
11473;SDS011;5793;52.238;13.438;2023-09-30T11:04:30;9.43;;;2.38;;
11473;SDS011;5793;52.238;13.438;2023-09-30T11:07:16;12.15;;;2.78;;
11473;SDS011;5793;52.238;13.438;2023-09-30T11:09:50;9.65;;;2.55;;
11473;SDS011;5793;52.238;13.438;2023-09-30T11:12:20;9.52;;;2.65;;
11473;SDS011;5793;52.238;13.438;2023-09-30T11:14:58;6.10;;;2.60;;
11473;SDS011;5793;52.238;13.438;2023-09-30T11:17:26;8.52;;;2.95;;
11473;SDS011;5793;52.238;13.438;2023-09-30T11:19:55;9.48;;;2.83;;
11473;SDS011;5793;52.238;13.438;2023-09-30T11:22:23;8.65;;;2.85;;
11473;SDS011;5793;52.238;13.438;2023-09-30T11:24:52;22.83;;;3.35;;
11473;SDS011;5793;52.238;13.438;2023-09-30T11:27:23;7.18;;;2.38;;
11473;SDS011;5793;52.238;13.438;2023-09-30T11:29:53;20.08;;;3.25;;
11473;SDS011;5793;52.238;13.438;2023-09-30T11:32:23;7.28;;;2.15;;
11473;SDS011;5793;52.238;13.438;2023-09-30T11:34:53;11.15;;;2.70;;
11473;SDS011;5793;52.238;13.438;2023-09-30T11:37:21;6.03;;;2.08;;
11473;SDS011;5793;52.238;13.438;2023-09-30T11:39:48;6.70;;;2.40;;
11473;SDS011;5793;52.238;13.438;2023-09-30T11:42:18;29.98;;;5.00;;
11473;SDS011;5793;52.238;13.438;2023-09-30T11:44:47;10.95;;;2.95;;
11473;SDS011;5793;52.238;13.438;2023-09-30T11:47:15;6.03;;;2.30;;
11473;SDS011;5793;52.238;13.438;2023-09-30T11:49:43;7.60;;;2.50;;
11473;SDS011;5793;52.238;13.438;2023-09-30T11:52:12;4.55;;;2.28;;
11473;SDS011;5793;52.238;13.438;2023-09-30T11:54:41;5.43;;;1.85;;
11473;SDS011;5793;52.238;13.438;2023-09-30T11:57:11;11.13;;;2.80;;
11473;SDS011;5793;52.238;13.438;2023-09-30T11:59:43;8.23;;;2.00;;
11473;SDS011;5793;52.238;13.438;2023-09-30T12:02:12;7.45;;;2.67;;
11473;SDS011;5793;52.238;13.438;2023-09-30T12:04:44;7.13;;;2.40;;
11473;SDS011;5793;52.238;13.438;2023-09-30T12:07:13;8.35;;;2.67;;
11473;SDS011;5793;52.238;13.438;2023-09-30T12:09:42;7.15;;;2.55;;
11473;SDS011;5793;52.238;13.438;2023-09-30T12:12:10;12.02;;;3.08;;
11473;SDS011;5793;52.238;13.438;2023-09-30T12:14:40;8.35;;;2.53;;
11473;SDS011;5793;52.238;13.438;2023-09-30T12:17:09;9.40;;;2.47;;
11473;SDS011;5793;52.238;13.438;2023-09-30T12:19:39;14.07;;;3.20;;
11473;SDS011;5793;52.238;13.438;2023-09-30T12:22:08;5.32;;;2.65;;
11473;SDS011;5793;52.238;13.438;2023-09-30T12:24:37;8.00;;;2.72;;
11473;SDS011;5793;52.238;13.438;2023-09-30T12:27:06;9.70;;;2.90;;
11473;SDS011;5793;52.238;13.438;2023-09-30T12:29:34;8.15;;;2.70;;
11473;SDS011;5793;52.238;13.438;2023-09-30T12:32:03;7.78;;;2.45;;
11473;SDS011;5793;52.238;13.438;2023-09-30T12:34:33;8.52;;;2.83;;
11473;SDS011;5793;52.238;13.438;2023-09-30T12:37:02;8.35;;;2.92;;
11473;SDS011;5793;52.238;13.438;2023-09-30T12:39:30;8.35;;;2.78;;
11473;SDS011;5793;52.238;13.438;2023-09-30T12:42:00;7.97;;;2.70;;
11473;SDS011;5793;52.238;13.438;2023-09-30T12:44:28;8.77;;;2.50;;
11473;SDS011;5793;52.238;13.438;2023-09-30T12:46:55;8.85;;;3.00;;
11473;SDS011;5793;52.238;13.438;2023-09-30T12:49:23;9.57;;;2.88;;
11473;SDS011;5793;52.238;13.438;2023-09-30T12:51:52;9.70;;;2.60;;
11473;SDS011;5793;52.238;13.438;2023-09-30T12:54:20;11.88;;;2.88;;
11473;SDS011;5793;52.238;13.438;2023-09-30T12:56:48;5.85;;;2.30;;
11473;SDS011;5793;52.238;13.438;2023-09-30T12:59:16;7.22;;;2.47;;
11473;SDS011;5793;52.238;13.438;2023-09-30T13:01:46;14.05;;;3.33;;
11473;SDS011;5793;52.238;13.438;2023-09-30T13:04:15;6.97;;;2.13;;
11473;SDS011;5793;52.238;13.438;2023-09-30T13:06:43;7.07;;;2.67;;
11473;SDS011;5793;52.238;13.438;2023-09-30T13:09:12;9.30;;;2.97;;
11473;SDS011;5793;52.238;13.438;2023-09-30T13:11:40;4.10;;;2.10;;
11473;SDS011;5793;52.238;13.438;2023-09-30T13:14:08;5.65;;;2.00;;
11473;SDS011;5793;52.238;13.438;2023-09-30T13:16:38;5.72;;;2.10;;
11473;SDS011;5793;52.238;13.438;2023-09-30T13:19:06;6.00;;;2.63;;
11473;SDS011;5793;52.238;13.438;2023-09-30T13:21:33;7.38;;;2.08;;
11473;SDS011;5793;52.238;13.438;2023-09-30T13:24:01;4.13;;;1.67;;
11473;SDS011;5793;52.238;13.438;2023-09-30T13:26:34;4.65;;;1.92;;
11473;SDS011;5793;52.238;13.438;2023-09-30T13:29:02;8.80;;;2.10;;
11473;SDS011;5793;52.238;13.438;2023-09-30T13:31:31;5.30;;;1.90;;
11473;SDS011;5793;52.238;13.438;2023-09-30T13:33:59;3.63;;;1.75;;
11473;SDS011;5793;52.238;13.438;2023-09-30T13:36:27;8.80;;;2.17;;
11473;SDS011;5793;52.238;13.438;2023-09-30T13:38:54;8.40;;;1.98;;
11473;SDS011;5793;52.238;13.438;2023-09-30T13:41:23;7.63;;;2.25;;
11473;SDS011;5793;52.238;13.438;2023-09-30T13:43:52;6.40;;;2.10;;
11473;SDS011;5793;52.238;13.438;2023-09-30T13:46:21;5.20;;;1.92;;
11473;SDS011;5793;52.238;13.438;2023-09-30T13:48:51;6.55;;;1.83;;
11473;SDS011;5793;52.238;13.438;2023-09-30T13:51:19;12.32;;;2.25;;
11473;SDS011;5793;52.238;13.438;2023-09-30T13:53:47;6.05;;;1.90;;
11473;SDS011;5793;52.238;13.438;2023-09-30T13:56:14;6.10;;;1.80;;
11473;SDS011;5793;52.238;13.438;2023-09-30T13:58:43;9.75;;;2.53;;
11473;SDS011;5793;52.238;13.438;2023-09-30T14:01:13;4.43;;;2.13;;
11473;SDS011;5793;52.238;13.438;2023-09-30T14:03:41;5.93;;;1.70;;
11473;SDS011;5793;52.238;13.438;2023-09-30T14:06:10;6.85;;;2.17;;
11473;SDS011;5793;52.238;13.438;2023-09-30T14:08:39;5.47;;;1.88;;
11473;SDS011;5793;52.238;13.438;2023-09-30T14:11:08;4.80;;;1.65;;
11473;SDS011;5793;52.238;13.438;2023-09-30T14:13:37;6.68;;;2.00;;
11473;SDS011;5793;52.238;13.438;2023-09-30T14:16:05;5.93;;;2.20;;
11473;SDS011;5793;52.238;13.438;2023-09-30T14:18:35;4.35;;;1.75;;
11473;SDS011;5793;52.238;13.438;2023-09-30T14:21:05;5.68;;;1.80;;
11473;SDS011;5793;52.238;13.438;2023-09-30T14:23:33;4.35;;;1.70;;
11473;SDS011;5793;52.238;13.438;2023-09-30T14:26:04;7.43;;;2.10;;
11473;SDS011;5793;52.238;13.438;2023-09-30T14:28:37;4.15;;;1.95;;
11473;SDS011;5793;52.238;13.438;2023-09-30T14:31:05;5.53;;;2.20;;
11473;SDS011;5793;52.238;13.438;2023-09-30T14:33:35;12.40;;;2.55;;
11473;SDS011;5793;52.238;13.438;2023-09-30T14:36:03;7.82;;;2.28;;
11473;SDS011;5793;52.238;13.438;2023-09-30T14:38:32;11.68;;;2.08;;
11473;SDS011;5793;52.238;13.438;2023-09-30T14:41:00;7.30;;;2.35;;
11473;SDS011;5793;52.238;13.438;2023-09-30T14:43:28;6.13;;;2.03;;
11473;SDS011;5793;52.238;13.438;2023-09-30T14:45:56;4.35;;;1.75;;
11473;SDS011;5793;52.238;13.438;2023-09-30T14:48:24;7.70;;;2.10;;
11473;SDS011;5793;52.238;13.438;2023-09-30T14:50:53;8.43;;;2.30;;
11473;SDS011;5793;52.238;13.438;2023-09-30T14:53:21;4.35;;;1.88;;
11473;SDS011;5793;52.238;13.438;2023-09-30T14:55:49;7.60;;;2.20;;
11473;SDS011;5793;52.238;13.438;2023-09-30T14:58:17;7.72;;;2.45;;